Time;durP1;ratioP1;P1;durP2;ratioP2;P2;SDS_P1;SDS_P2;PMS_P1;PMS_P2;Temp;Humidity;BMP_temperature;BMP_pressure;BME280_temperature;BME280_humidity;BME280_pressure;Samples;Min_cycle;Max_cycle;Signal;HPM_P1;HPM_P2
2022/02/12 00:00:46;;;;;;;14.65;4.60;;;-1.50;99.90;;;;;;5077281;28;20055;-72
2022/02/12 00:03:14;;;;;;;14.65;4.47;;;-1.50;99.90;;;;;;5078320;28;20419;-72
2022/02/12 00:05:42;;;;;;;15.68;5.25;;;-1.50;99.90;;;;;;5078004;28;20071;-72
2022/02/12 00:08:09;;;;;;;12.65;4.93;;;-1.60;99.90;;;;;;5077775;28;20039;-72
2022/02/12 00:10:36;;;;;;;22.75;5.40;;;-1.60;99.90;;;;;;5078120;28;20320;-72
2022/02/12 00:13:12;;;;;;;16.30;4.85;;;-1.60;99.90;;;;;;5077642;28;20021;-73
2022/02/12 00:15:40;;;;;;;;;;;-1.60;99.90;;;;;;5078028;28;20028;-72
2022/02/12 00:18:07;;;;;;;16.48;4.13;;;-1.70;99.90;;;;;;5097550;28;19915;-72
2022/02/12 00:20:35;;;;;;;14.65;4.68;;;-1.60;99.90;;;;;;5098179;28;20028;-72
2022/02/12 00:23:03;;;;;;;12.25;4.45;;;-1.70;99.90;;;;;;5097688;28;20068;-72
2022/02/12 00:25:30;;;;;;;18.88;4.43;;;-1.70;99.90;;;;;;5098276;28;20020;-72
2022/02/12 00:27:58;;;;;;;11.82;4.47;;;-1.70;99.90;;;;;;5097662;28;20020;-72
2022/02/12 00:30:27;;;;;;;14.80;5.55;;;-1.70;99.90;;;;;;5097722;28;20096;-72
2022/02/12 00:32:56;;;;;;;23.15;4.45;;;-1.80;99.90;;;;;;5097599;28;20042;-72
2022/02/12 00:35:24;;;;;;;11.10;4.20;;;-1.80;99.90;;;;;;5097611;28;20051;-72
2022/02/12 00:37:52;;;;;;;18.52;6.00;;;-1.80;99.90;;;;;;5097288;28;20063;-72
2022/02/12 00:40:22;;;;;;;19.58;5.82;;;-1.90;99.90;;;;;;5098146;28;20024;-72
2022/02/12 00:42:50;;;;;;;18.27;4.82;;;-1.80;99.90;;;;;;5097642;28;20030;-72
2022/02/12 00:45:18;;;;;;;24.73;5.70;;;-1.90;99.90;;;;;;5097386;28;20028;-72
2022/02/12 00:47:45;;;;;;;18.25;6.05;;;-1.80;99.90;;;;;;5097391;28;20020;-72
2022/02/12 00:50:12;;;;;;;20.08;4.50;;;-1.80;99.90;;;;;;5081672;28;20027;-72
2022/02/12 00:52:40;;;;;;;19.45;5.03;;;-1.80;99.90;;;;;;5101746;28;20035;-72
2022/02/12 00:55:07;;;;;;;11.95;5.40;;;-1.90;99.90;;;;;;5102112;28;20103;-72
2022/02/12 00:57:35;;;;;;;19.50;4.50;;;-1.90;99.90;;;;;;5083997;28;20031;-72
2022/02/12 01:00:03;;;;;;;19.25;4.60;;;-1.80;99.90;;;;;;5101966;28;20020;-72
2022/02/12 01:02:30;;;;;;;18.65;5.40;;;-1.80;99.90;;;;;;5083656;28;20058;-72
2022/02/12 01:04:58;;;;;;;21.80;4.75;;;-1.90;99.90;;;;;;5101450;28;20020;-72
2022/02/12 01:07:25;;;;;;;18.63;5.38;;;-1.90;99.90;;;;;;5101438;28;20331;-72
2022/02/12 01:09:52;;;;;;;17.35;4.25;;;-1.90;99.90;;;;;;5083483;28;20438;-72
2022/02/12 01:12:20;;;;;;;24.83;5.07;;;-1.90;99.90;;;;;;5083214;28;20139;-72
2022/02/12 01:14:47;;;;;;;17.67;4.50;;;-1.90;99.90;;;;;;5100503;28;20028;-72
2022/02/12 01:17:14;;;;;;;18.58;4.30;;;-1.90;99.90;;;;;;5101335;28;20051;-72
2022/02/12 01:19:42;;;;;;;16.15;4.55;;;-1.90;99.90;;;;;;5101135;28;20045;-72
2022/02/12 01:22:09;;;;;;;27.27;5.57;;;-1.90;99.90;;;;;;5101084;28;20028;-72
2022/02/12 01:24:39;;;;;;;25.00;4.65;;;-1.90;99.90;;;;;;5101312;28;20016;-72
2022/02/12 01:27:07;;;;;;;20.23;4.65;;;-2.00;99.90;;;;;;5101405;28;20104;-72
2022/02/12 01:29:34;;;;;;;14.98;4.78;;;-2.00;99.90;;;;;;5100994;28;20392;-72
2022/02/12 01:32:05;;;;;;;16.10;4.45;;;-2.00;99.90;;;;;;5100971;28;20442;-72
2022/02/12 01:34:34;;;;;;;13.73;4.15;;;-2.00;99.90;;;;;;5100795;28;20028;-72
2022/02/12 01:37:03;;;;;;;22.63;4.25;;;-2.00;99.90;;;;;;5101012;28;20031;-72
2022/02/12 01:39:31;;;;;;;20.63;4.82;;;-2.10;99.90;;;;;;5100709;28;20089;-72
2022/02/12 01:41:59;;;;;;;17.42;4.80;;;-2.10;99.90;;;;;;5083631;28;20027;-72
2022/02/12 01:44:30;;;;;;;16.35;5.28;;;-2.10;99.90;;;;;;5100682;28;20315;-72
2022/02/12 01:46:58;;;;;;;23.90;5.60;;;-2.10;99.90;;;;;;5101412;28;20296;-72
2022/02/12 01:49:26;;;;;;;22.88;4.95;;;-2.10;99.90;;;;;;5100821;28;20331;-72
2022/02/12 01:51:55;;;;;;;28.33;5.80;;;-2.10;99.90;;;;;;5100261;28;20415;-72
2022/02/12 01:54:24;;;;;;;19.27;5.05;;;-2.10;99.90;;;;;;5100600;28;20032;-72
2022/02/12 01:56:52;;;;;;;20.55;5.25;;;-2.10;99.90;;;;;;5100670;28;20121;-72
2022/02/12 01:59:23;;;;;;;24.13;5.15;;;-2.10;99.90;;;;;;5100204;28;20031;-72
2022/02/12 02:01:51;;;;;;;19.65;4.00;;;-2.10;99.90;;;;;;5098930;28;20087;-72
2022/02/12 02:04:19;;;;;;;24.60;4.90;;;-2.10;99.90;;;;;;5100816;28;20069;-72
2022/02/12 02:06:50;;;;;;;18.85;4.95;;;-2.10;99.90;;;;;;5082458;28;20020;-72
2022/02/12 02:09:19;;;;;;;11.73;4.15;;;-2.10;99.90;;;;;;5100244;28;20020;-72
2022/02/12 02:11:48;;;;;;;12.25;4.60;;;-2.10;99.90;;;;;;5082283;28;20031;-72
2022/02/12 02:14:16;;;;;;;14.68;4.90;;;-2.10;99.90;;;;;;5100102;28;20420;-72
2022/02/12 02:16:45;;;;;;;17.50;4.00;;;-2.10;99.90;;;;;;5099973;28;20048;-72
2022/02/12 02:19:13;;;;;;;21.00;4.95;;;-2.10;99.90;;;;;;5099952;28;20020;-72
2022/02/12 02:21:40;;;;;;;16.77;4.18;;;-2.20;99.90;;;;;;5099861;28;20036;-72
2022/02/12 02:24:08;;;;;;;22.63;4.45;;;-2.20;99.90;;;;;;5100450;28;20408;-72
2022/02/12 02:26:36;;;;;;;9.43;3.92;;;-2.20;99.90;;;;;;5099886;28;20047;-72
2022/02/12 02:29:04;;;;;;;16.42;4.53;;;-2.20;99.90;;;;;;5099574;28;20415;-72
2022/02/12 02:31:31;;;;;;;9.45;4.25;;;-2.30;99.90;;;;;;5099932;28;20296;-72
2022/02/12 02:33:58;;;;;;;14.52;4.57;;;-2.20;99.90;;;;;;5100036;28;20020;-72
2022/02/12 02:36:25;;;;;;;19.25;3.97;;;-2.20;99.90;;;;;;5100197;28;20104;-72
2022/02/12 02:38:52;;;;;;;15.35;3.60;;;-2.40;99.90;;;;;;5099643;28;20016;-72
2022/02/12 02:41:19;;;;;;;14.27;3.53;;;-2.40;99.90;;;;;;5100039;28;20028;-72
2022/02/12 02:43:47;;;;;;;14.13;4.25;;;-2.40;99.90;;;;;;5082301;28;20017;-72
2022/02/12 02:46:14;;;;;;;17.17;4.28;;;-2.40;99.90;;;;;;5082271;28;20024;-72
2022/02/12 02:48:42;;;;;;;17.05;3.38;;;-2.40;99.90;;;;;;5099390;28;20020;-72
2022/02/12 02:56:41;;;;;;;11.85;4.10;;;-2.50;99.90;;;;;;5099904;28;20035;-72
2022/02/12 02:59:10;;;;;;;14.10;3.47;;;-2.50;99.90;;;;;;5099669;28;20028;-72
2022/02/12 03:01:37;;;;;;;9.15;3.38;;;-2.50;99.90;;;;;;5081787;28;20031;-73
2022/02/12 03:04:04;;;;;;;13.82;3.83;;;-2.50;99.90;;;;;;5080562;28;20023;-72
2022/02/12 03:06:32;;;;;;;21.70;4.22;;;-2.50;99.90;;;;;;5098991;28;20028;-72
2022/02/12 03:09:02;;;;;;;10.43;3.25;;;-2.50;99.90;;;;;;5099068;28;20373;-72
2022/02/12 03:11:29;;;;;;;13.23;4.03;;;-2.50;99.90;;;;;;5099726;28;20424;-72
2022/02/12 03:13:57;;;;;;;16.00;3.70;;;-2.50;99.90;;;;;;5080569;28;20024;-72
2022/02/12 03:16:24;;;;;;;13.85;3.40;;;-2.50;99.90;;;;;;5099231;28;20439;-72
2022/02/12 03:18:52;;;;;;;7.07;3.03;;;-2.50;99.90;;;;;;5081544;28;20016;-72
2022/02/12 03:21:19;;;;;;;10.82;2.92;;;-2.50;99.90;;;;;;5099387;28;20107;-72
2022/02/12 03:23:47;;;;;;;13.30;3.55;;;-2.50;99.90;;;;;;5098812;28;20012;-72
2022/02/12 03:26:15;;;;;;;14.02;2.38;;;-2.50;99.90;;;;;;5098735;28;20016;-72
2022/02/12 03:28:43;;;;;;;11.73;3.05;;;-2.50;99.90;;;;;;5098968;28;20027;-72
2022/02/12 03:31:10;;;;;;;14.85;3.58;;;-2.50;99.90;;;;;;5081188;28;20030;-72
2022/02/12 03:33:38;;;;;;;14.82;2.78;;;-2.60;99.90;;;;;;5098892;28;20016;-72
2022/02/12 03:36:06;;;;;;;15.50;3.28;;;-2.60;99.90;;;;;;5098497;28;20031;-72
2022/02/12 03:38:38;;;;;;;9.48;2.42;;;-2.60;99.90;;;;;;5098537;28;20044;-72
2022/02/12 03:41:07;;;;;;;11.23;2.95;;;-2.80;99.90;;;;;;5080505;28;20107;-72
2022/02/12 03:43:35;;;;;;;8.63;2.80;;;-2.80;99.90;;;;;;5098401;28;20020;-72
2022/02/12 03:46:04;;;;;;;12.02;2.53;;;-2.80;99.90;;;;;;5098300;28;20024;-72
2022/02/12 03:48:33;;;;;;;12.40;2.75;;;-2.90;99.90;;;;;;5098829;28;20012;-72
2022/02/12 03:51:00;;;;;;;12.75;2.70;;;-2.90;99.90;;;;;;5098452;28;20031;-72
2022/02/12 03:53:27;;;;;;;10.48;3.05;;;-2.90;99.90;;;;;;5098524;28;20020;-72
2022/02/12 03:55:55;;;;;;;15.27;2.85;;;-2.90;99.90;;;;;;5098248;28;20514;-72
2022/02/12 03:58:22;;;;;;;8.60;2.30;;;-2.90;99.90;;;;;;5080311;28;20040;-72
2022/02/12 04:00:50;;;;;;;8.30;1.98;;;-2.90;99.90;;;;;;5098215;28;20125;-72
2022/02/12 04:03:22;;;;;;;14.98;3.22;;;-2.90;99.90;;;;;;5098330;28;20038;-72
2022/02/12 04:05:49;;;;;;;9.90;2.53;;;-3.00;99.90;;;;;;5098103;28;20024;-72
2022/02/12 04:08:22;;;;;;;16.48;5.30;;;-2.90;99.90;;;;;;5097849;28;20028;-72
2022/02/12 04:10:50;;;;;;;17.38;2.90;;;-3.00;99.90;;;;;;5098155;28;20020;-72
2022/02/12 04:13:18;;;;;;;15.73;2.88;;;-3.00;99.90;;;;;;5098385;28;20059;-72
2022/02/12 04:15:46;;;;;;;16.85;3.00;;;-2.90;99.90;;;;;;5097887;28;20028;-72
2022/02/12 04:18:15;;;;;;;9.35;2.45;;;-3.00;99.90;;;;;;5097395;28;20115;-72
2022/02/12 04:20:42;;;;;;;10.60;3.00;;;-3.00;99.90;;;;;;5097522;28;20028;-72
2022/02/12 04:23:10;;;;;;;11.93;3.20;;;-3.00;99.90;;;;;;5098254;28;20107;-72
2022/02/12 04:25:38;;;;;;;17.08;2.70;;;-3.00;99.90;;;;;;5097049;28;20024;-72
2022/02/12 04:28:10;;;;;;;15.38;3.50;;;-3.00;99.90;;;;;;5098209;28;20023;-72
2022/02/12 04:30:39;;;;;;;15.27;3.00;;;-3.00;99.90;;;;;;5097832;28;20031;-72
2022/02/12 04:33:11;;;;;;;10.63;3.15;;;-3.00;99.90;;;;;;5097528;28;20055;-72
2022/02/12 04:35:39;;;;;;;8.80;2.67;;;-3.00;99.90;;;;;;5063107;28;20028;-72
2022/02/12 04:38:06;;;;;;;11.02;3.10;;;-3.00;99.90;;;;;;5097836;28;20024;-72
2022/02/12 04:40:33;;;;;;;8.35;2.40;;;-3.00;99.90;;;;;;5079577;28;20107;-72
2022/02/12 04:43:01;;;;;;;9.70;3.00;;;-3.00;99.90;;;;;;5097433;28;20027;-72
2022/02/12 04:45:28;;;;;;;10.25;2.72;;;-3.10;99.90;;;;;;5079593;28;20020;-72
2022/02/12 04:47:56;;;;;;;16.88;3.42;;;-3.10;99.90;;;;;;5079550;28;20074;-72
2022/02/12 04:50:26;;;;;;;13.63;2.70;;;-3.10;99.90;;;;;;5097459;28;20054;-72
2022/02/12 04:52:54;;;;;;;15.45;2.75;;;-3.10;99.90;;;;;;5097289;28;20024;-73
2022/02/12 04:55:24;;;;;;;15.05;2.60;;;-3.10;99.90;;;;;;5097118;28;20423;-73
2022/02/12 04:57:52;;;;;;;14.10;3.42;;;-3.10;99.90;;;;;;5097244;28;20024;-72
2022/02/12 05:00:19;;;;;;;18.90;5.70;;;-3.20;99.90;;;;;;5097274;28;20090;-72
2022/02/12 05:02:47;;;;;;;9.60;3.17;;;-3.20;99.90;;;;;;5097328;28;20020;-72
2022/02/12 05:05:14;;;;;;;11.40;2.45;;;-3.20;99.90;;;;;;5079352;28;20027;-72
2022/02/12 05:07:42;;;;;;;17.63;3.38;;;-3.20;99.90;;;;;;5097478;28;20107;-72
2022/02/12 05:10:10;;;;;;;15.20;3.33;;;-3.20;99.90;;;;;;5097748;28;20114;-72
2022/02/12 05:12:38;;;;;;;10.07;3.15;;;-3.20;99.90;;;;;;5079625;28;20432;-72
2022/02/12 05:15:07;;;;;;;13.63;3.38;;;-3.20;99.90;;;;;;5097182;28;20107;-72
2022/02/12 05:17:34;;;;;;;14.65;3.28;;;-3.20;99.90;;;;;;5097134;28;20044;-72
2022/02/12 05:20:02;;;;;;;13.02;3.67;;;-3.20;99.90;;;;;;5097126;28;20075;-72
2022/02/12 05:22:29;;;;;;;9.50;3.17;;;-3.20;99.90;;;;;;5097791;28;20073;-72
2022/02/12 05:24:56;;;;;;;24.75;7.03;;;-3.20;99.90;;;;;;5079162;28;20039;-72
2022/02/12 05:27:23;;;;;;;17.27;5.05;;;-3.20;99.90;;;;;;5097404;28;20024;-72
2022/02/12 05:29:50;;;;;;;16.13;3.92;;;-3.20;99.90;;;;;;5079138;28;20085;-72
2022/02/12 05:32:18;;;;;;;12.98;3.65;;;-3.20;99.90;;;;;;5097194;28;20027;-72
2022/02/12 05:34:45;;;;;;;16.92;3.80;;;-3.20;99.90;;;;;;5096914;28;20036;-72
2022/02/12 05:37:12;;;;;;;25.00;6.47;;;-3.20;99.90;;;;;;5082613;28;20111;-72
2022/02/12 05:39:40;;;;;;;11.18;3.20;;;-3.20;99.90;;;;;;5100713;28;20111;-72
2022/02/12 05:42:08;;;;;;;18.27;4.85;;;-3.20;99.90;;;;;;5101120;28;20019;-72
2022/02/12 05:44:37;;;;;;;16.63;3.72;;;-3.20;99.90;;;;;;5100700;28;20427;-72
2022/02/12 05:47:04;;;;;;;10.98;3.33;;;-3.20;99.90;;;;;;5100711;28;20036;-72
2022/02/12 05:49:31;;;;;;;16.48;4.45;;;-3.20;99.90;;;;;;5101143;28;20059;-72
2022/02/12 05:51:58;;;;;;;17.63;3.78;;;-3.30;99.90;;;;;;5082631;28;20036;-72
2022/02/12 05:54:25;;;;;;;13.00;3.72;;;-3.30;99.90;;;;;;5082525;28;20020;-72
2022/02/12 05:56:52;;;;;;;14.75;4.18;;;-3.30;99.90;;;;;;5101041;28;20423;-72
2022/02/12 05:59:19;;;;;;;11.68;3.70;;;-3.30;99.90;;;;;;5100295;28;20034;-72
2022/02/12 06:01:47;;;;;;;12.80;2.92;;;-3.30;99.90;;;;;;5100844;28;20315;-72
2022/02/12 06:04:15;;;;;;;9.38;3.28;;;-3.30;99.90;;;;;;5100886;28;20063;-72
2022/02/12 06:06:42;;;;;;;11.00;3.72;;;-3.30;99.90;;;;;;5100527;28;20065;-72
2022/02/12 06:09:09;;;;;;;12.25;3.55;;;-3.30;99.90;;;;;;5099549;28;20021;-72
2022/02/12 06:11:37;;;;;;;16.70;3.53;;;-3.40;99.90;;;;;;5100830;28;20016;-72
2022/02/12 06:14:04;;;;;;;14.98;4.65;;;-3.40;99.90;;;;;;5100129;28;20023;-72
2022/02/12 06:16:31;;;;;;;17.13;4.32;;;-3.20;99.90;;;;;;5100475;28;20052;-72
2022/02/12 06:18:59;;;;;;;11.82;3.38;;;-3.30;99.90;;;;;;5100071;28;20054;-72
2022/02/12 06:21:26;;;;;;;20.77;3.42;;;-3.30;99.90;;;;;;5081995;28;20034;-72
2022/02/12 06:23:54;;;;;;;20.75;3.35;;;-3.30;99.90;;;;;;5099934;28;20042;-71
2022/02/12 06:26:21;;;;;;;24.33;3.47;;;-3.30;99.90;;;;;;5100019;28;20024;-72
2022/02/12 06:28:49;;;;;;;9.45;4.00;;;-3.50;99.90;;;;;;5100418;28;20024;-71
2022/02/12 06:31:16;;;;;;;11.82;2.92;;;-3.50;99.90;;;;;;5100335;28;20038;-75
2022/02/12 06:33:43;;;;;;;12.85;3.25;;;-3.60;99.90;;;;;;5081748;28;20343;-73
2022/02/12 06:36:11;;;;;;;11.00;2.85;;;-3.50;99.90;;;;;;5099906;28;20044;-74
2022/02/12 06:38:38;;;;;;;12.50;2.83;;;-3.50;99.90;;;;;;5100009;28;20362;-72
2022/02/12 06:41:06;;;;;;;13.88;2.90;;;-3.50;99.90;;;;;;5100113;28;20427;-74
2022/02/12 06:43:34;;;;;;;10.48;3.30;;;-3.50;99.90;;;;;;5099895;28;20020;-75
2022/02/12 06:46:02;;;;;;;11.02;2.85;;;-3.50;99.90;;;;;;5099554;28;20308;-76
2022/02/12 06:48:29;;;;;;;10.63;3.53;;;-3.50;99.90;;;;;;5080599;28;20351;-75
2022/02/12 06:50:57;;;;;;;15.55;5.50;;;-3.50;99.90;;;;;;5099468;28;20024;-74
2022/02/12 06:53:24;;;;;;;16.55;4.80;;;-3.50;99.90;;;;;;5099408;28;20059;-74
2022/02/12 06:55:51;;;;;;;10.93;2.47;;;-3.50;99.90;;;;;;5099523;28;20030;-73
2022/02/12 06:58:20;;;;;;;5.68;2.47;;;-3.50;99.90;;;;;;5099782;28;20028;-73
2022/02/12 07:00:47;;;;;;;10.02;3.35;;;-3.50;99.90;;;;;;5099171;28;20319;-73
2022/02/12 07:03:14;;;;;;;13.05;2.80;;;-3.50;99.90;;;;;;5099672;28;20022;-76
2022/02/12 07:05:42;;;;;;;19.42;6.10;;;-3.40;99.90;;;;;;5099505;28;20016;-76
2022/02/12 07:08:10;;;;;;;62.58;14.85;;;-3.40;99.90;;;;;;5081203;28;20110;-79
2022/02/12 07:10:37;;;;;;;48.47;12.45;;;-3.40;99.90;;;;;;5097950;28;20059;-73
2022/02/12 07:13:05;;;;;;;39.50;10.45;;;-3.40;99.90;;;;;;5099138;28;20024;-76
2022/02/12 07:15:32;;;;;;;23.88;7.68;;;-3.30;99.90;;;;;;5099064;28;20024;-75
2022/02/12 07:17:59;;;;;;;31.70;11.73;;;-3.30;99.90;;;;;;5077538;28;20079;-75
2022/02/12 07:20:27;;;;;;;19.67;7.88;;;-3.20;99.90;;;;;;5078792;28;20086;-75
2022/02/12 07:22:55;;;;;;;23.30;7.53;;;-3.20;99.90;;;;;;5078367;28;20050;-75
2022/02/12 07:25:23;;;;;;;15.70;5.88;;;-3.10;99.90;;;;;;5078151;28;20051;-78
2022/02/12 07:27:56;;;;;;;11.75;3.65;;;-3.00;99.90;;;;;;5077390;28;20025;-76
2022/02/12 07:30:24;;;;;;;10.52;3.35;;;-2.90;99.90;;;;;;5078845;28;20024;-76
2022/02/12 07:32:52;;;;;;;19.02;3.95;;;-2.80;99.90;;;;;;5077277;28;20048;-74
2022/02/12 07:35:19;;;;;;;9.32;2.60;;;-2.70;99.90;;;;;;5078369;28;20107;-74
2022/02/12 07:37:49;;;;;;;12.40;2.83;;;-2.60;99.90;;;;;;5078590;28;20017;-74
2022/02/12 07:40:18;;;;;;;12.45;3.10;;;-2.50;99.90;;;;;;5078137;28;20025;-73
2022/02/12 07:42:46;;;;;;;13.88;3.00;;;-2.30;99.90;;;;;;5078157;28;20103;-73
2022/02/12 07:45:16;;;;;;;10.57;2.95;;;-2.00;99.90;;;;;;5078395;28;20021;-74
2022/02/12 07:47:44;;;;;;;15.60;3.47;;;-1.90;99.90;;;;;;5078051;28;20024;-72
2022/02/12 07:50:15;;;;;;;11.18;2.53;;;-1.70;99.90;;;;;;5078024;28;20025;-73
2022/02/12 07:52:43;;;;;;;15.05;3.20;;;-1.60;99.90;;;;;;5078344;28;20024;-73
2022/02/12 07:55:11;;;;;;;9.93;2.83;;;-1.40;99.90;;;;;;5076909;28;20024;-73
2022/02/12 07:57:39;;;;;;;14.82;2.67;;;-1.30;99.90;;;;;;5077991;28;20020;-73
2022/02/12 08:00:08;;;;;;;9.45;2.70;;;-1.20;99.90;;;;;;5076714;28;20080;-73
2022/02/12 08:02:36;;;;;;;8.52;2.63;;;-1.10;99.90;;;;;;5077275;28;20025;-73
2022/02/12 08:05:03;;;;;;;8.23;2.50;;;-1.00;99.90;;;;;;5078039;28;20096;-73
2022/02/12 08:07:31;;;;;;;12.88;2.78;;;-0.90;99.90;;;;;;5076716;28;20473;-73
2022/02/12 08:10:00;;;;;;;6.85;1.75;;;-0.80;99.90;;;;;;5077970;28;20320;-73
2022/02/12 08:12:28;;;;;;;11.25;2.70;;;-0.70;99.90;;;;;;5077841;28;20048;-73
2022/02/12 08:14:57;;;;;;;5.70;2.13;;;-0.70;99.90;;;;;;5078162;28;20024;-73
2022/02/12 08:17:25;;;;;;;8.18;2.35;;;-0.60;99.90;;;;;;5090851;28;20094;-72
2022/02/12 08:19:54;;;;;;;16.85;3.05;;;-0.60;99.90;;;;;;5079853;28;20032;-72
2022/02/12 08:22:22;;;;;;;6.80;2.15;;;-0.50;99.90;;;;;;5097977;28;20032;-71
2022/02/12 08:24:49;;;;;;;3.97;2.20;;;-0.50;99.90;;;;;;5080371;28;20035;-72
2022/02/12 08:27:17;;;;;;;11.18;3.00;;;-0.40;99.90;;;;;;5097758;28;20044;-73
2022/02/12 08:29:45;;;;;;;13.48;2.30;;;-0.40;99.90;;;;;;5097657;28;20020;-72
2022/02/12 08:32:13;;;;;;;6.47;2.28;;;-0.40;99.90;;;;;;5097820;28;20024;-72
2022/02/12 08:34:44;;;;;;;11.02;2.95;;;-0.30;99.90;;;;;;5097681;28;20024;-71
2022/02/12 08:37:12;;;;;;;4.95;2.13;;;-0.30;99.90;;;;;;5097665;28;20070;-74
2022/02/12 08:39:39;;;;;;;8.27;2.22;;;-0.30;99.90;;;;;;5097725;28;20016;-72
2022/02/12 08:42:06;;;;;;;7.97;2.13;;;-0.20;99.90;;;;;;5097539;28;20047;-71
2022/02/12 08:44:35;;;;;;;14.07;2.33;;;-0.20;99.90;;;;;;5063078;28;20323;-72
2022/02/12 08:47:02;;;;;;;11.02;2.47;;;-0.20;99.90;;;;;;5097516;28;20423;-72
2022/02/12 08:49:30;;;;;;;10.65;2.63;;;-0.20;99.90;;;;;;5079564;28;20028;-72
2022/02/12 08:51:58;;;;;;;11.40;2.30;;;-0.20;99.90;;;;;;5097677;28;20024;-72
2022/02/12 08:54:25;;;;;;;8.45;2.75;;;-0.10;99.90;;;;;;5097848;28;20017;-73
2022/02/12 08:56:56;;;;;;;9.98;2.00;;;-0.10;99.90;;;;;;5097613;28;20416;-74
2022/02/12 08:59:24;;;;;;;15.98;2.90;;;0.00;99.90;;;;;;5097230;28;20035;-73
2022/02/12 09:01:52;;;;;;;14.88;2.25;;;0.00;99.90;;;;;;5079552;28;20424;-72
2022/02/12 09:04:20;;;;;;;10.65;2.47;;;0.10;99.90;;;;;;5097844;28;20020;-72
2022/02/12 09:06:47;;;;;;;9.48;3.75;;;0.10;99.90;;;;;;5097415;28;20016;-73
2022/02/12 09:09:14;;;;;;;8.15;2.63;;;0.20;99.90;;;;;;5097854;28;20048;-72
2022/02/12 09:11:43;;;;;;;13.52;2.80;;;0.30;99.90;;;;;;5100336;28;20048;-73
2022/02/12 09:14:12;;;;;;;17.58;3.38;;;0.40;99.90;;;;;;5101857;28;20051;-72
2022/02/12 09:16:41;;;;;;;6.53;2.53;;;0.50;99.90;;;;;;5100897;28;20055;-73
2022/02/12 09:19:09;;;;;;;19.15;3.47;;;0.60;99.90;;;;;;5101717;28;20020;-73
2022/02/12 09:21:37;;;;;;;10.45;2.67;;;0.70;99.90;;;;;;5101575;28;20021;-72
2022/02/12 09:24:05;;;;;;;17.35;3.95;;;0.80;99.90;;;;;;5101674;28;20114;-72
2022/02/12 09:26:32;;;;;;;12.45;2.83;;;0.80;99.90;;;;;;5101102;28;20044;-73
2022/02/12 09:29:07;;;;;;;9.65;2.38;;;0.90;99.90;;;;;;5100996;28;20024;-74
2022/02/12 09:31:35;;;;;;;8.38;2.00;;;1.00;99.90;;;;;;5101163;28;20024;-74
2022/02/12 09:34:03;;;;;;;13.00;2.53;;;1.10;99.90;;;;;;5101178;28;20072;-74
2022/02/12 09:36:30;;;;;;;11.85;3.00;;;1.20;99.90;;;;;;5100838;28;20024;-74
2022/02/12 09:38:57;;;;;;;12.73;2.85;;;1.30;99.90;;;;;;5101637;28;20308;-74
2022/02/12 09:41:27;;;;;;;7.65;2.13;;;1.40;99.90;;;;;;5100788;28;20027;-76
2022/02/12 09:43:56;;;;;;;19.55;3.17;;;1.60;99.90;;;;;;5100686;28;20016;-73
2022/02/12 09:46:53;;;;;;;10.38;2.40;;;1.70;99.90;;;;;;5100663;28;20012;-74
2022/02/12 09:49:20;;;;;;;;;;;1.80;99.90;;;;;;5101031;28;20055;-74
2022/02/12 09:51:51;;;;;;;6.63;1.73;;;1.90;99.90;;;;;;5100731;28;19954;-75
2022/02/12 09:54:18;;;;;;;12.63;2.40;;;2.10;99.90;;;;;;5099609;28;20028;-80
2022/02/12 09:56:46;;;;;;;8.65;1.48;;;2.10;99.90;;;;;;5082570;28;20423;-78
2022/02/12 09:59:14;;;;;;;3.65;1.13;;;2.30;99.90;;;;;;5082343;28;20093;-78
2022/02/12 10:01:42;;;;;;;20.73;12.75;;;2.30;99.90;;;;;;5101003;28;20099;-76
2022/02/12 10:04:16;;;;;;;13.40;5.65;;;2.50;99.90;;;;;;5100382;28;20030;-80
2022/02/12 10:06:45;;;;;;;13.25;3.88;;;2.60;99.90;;;;;;5100394;28;20028;-74
2022/02/12 10:09:14;;;;;;;13.55;4.10;;;2.70;99.90;;;;;;5100161;28;20346;-75
2022/02/12 10:11:43;;;;;;;13.93;3.30;;;2.80;99.90;;;;;;5100374;28;20020;-77
2022/02/12 10:14:14;;;;;;;7.45;2.10;;;2.90;99.90;;;;;;5082165;28;20024;-72
2022/02/12 10:16:56;;;;;;;38.95;13.25;;;2.90;99.90;;;;;;5078575;28;20047;-73
2022/02/12 10:19:34;;;;;;;6.25;2.35;;;3.10;99.90;;;;;;5079626;28;20055;-76
2022/02/12 10:22:16;;;;;;;12.90;2.17;;;3.10;99.90;;;;;;5078692;28;20020;-75
2022/02/12 10:25:05;;;;;;;14.07;2.53;;;3.10;99.90;;;;;;5078637;28;20025;-75
2022/02/12 10:27:36;;;;;;;5.97;1.58;;;3.20;99.90;;;;;;5079634;28;20024;-76
2022/02/12 10:30:05;;;;;;;11.77;3.10;;;3.20;99.90;;;;;;5079065;28;20038;-76
2022/02/12 10:32:38;;;;;;;7.60;1.90;;;3.30;99.90;;;;;;5079576;28;20324;-75
2022/02/12 10:35:10;;;;;;;17.80;3.13;;;3.40;99.90;;;;;;5080490;28;20332;-76
2022/02/12 10:37:47;;;;;;;9.98;2.03;;;3.40;99.90;;;;;;5079811;28;20520;-76
2022/02/12 10:40:14;;;;;;;9.35;2.30;;;3.50;99.90;;;;;;5079595;28;20324;-76
2022/02/12 10:42:46;;;;;;;9.90;2.85;;;3.50;99.90;;;;;;5079392;28;20017;-76
2022/02/12 10:45:18;;;;;;;5.38;1.52;;;3.50;99.90;;;;;;5079751;28;20074;-76
2022/02/12 10:47:46;;;;;;;8.45;2.55;;;3.50;99.90;;;;;;5079760;28;20021;-76
2022/02/12 10:50:16;;;;;;;5.15;1.65;;;3.50;99.90;;;;;;5079711;28;20025;-76
2022/02/12 10:52:47;;;;;;;10.38;1.65;;;3.50;99.90;;;;;;5079177;28;20383;-75
2022/02/12 10:55:30;;;;;;;7.30;1.63;;;3.50;99.90;;;;;;5079778;28;20044;-75
2022/02/12 10:57:59;;;;;;;9.88;2.90;;;3.50;99.90;;;;;;5079017;28;20032;-75
2022/02/12 11:00:28;;;;;;;3.13;1.35;;;3.60;99.90;;;;;;5077921;28;20032;-76
2022/02/12 11:02:56;;;;;;;4.32;1.33;;;3.60;99.90;;;;;;5079507;28;20122;-76
2022/02/12 11:05:26;;;;;;;8.38;2.00;;;3.60;99.90;;;;;;5078943;28;20469;-76
2022/02/12 11:07:53;;;;;;;8.00;2.40;;;3.60;99.90;;;;;;5078952;28;20021;-76
2022/02/12 11:10:21;;;;;;;8.93;2.88;;;3.70;99.90;;;;;;5078864;28;20025;-76
2022/02/12 11:12:49;;;;;;;13.60;3.40;;;3.70;99.90;;;;;;5079016;28;20074;-75
2022/02/12 11:15:17;;;;;;;5.78;1.45;;;3.80;99.90;;;;;;5078710;28;20024;-76
2022/02/12 11:17:47;;;;;;;15.35;3.70;;;3.80;99.90;;;;;;5094520;28;20048;-82
2022/02/12 11:20:15;;;;;;;10.77;3.58;;;3.80;99.90;;;;;;5098824;28;20024;-78
2022/02/12 11:22:46;;;;;;;21.10;5.80;;;3.80;99.90;;;;;;5080902;28;20020;-77
2022/02/12 11:25:35;;;;;;;11.32;2.17;;;3.80;99.90;;;;;;5098888;28;20043;-78
2022/02/12 11:28:11;;;;;;;7.28;1.80;;;3.80;99.90;;;;;;5098837;28;20020;-77
2022/02/12 11:30:43;;;;;;;10.60;2.55;;;3.90;99.90;;;;;;5099568;28;20438;-78
2022/02/12 11:33:23;;;;;;;6.50;2.03;;;3.90;99.90;;;;;;5098400;28;20032;-77
2022/02/12 11:36:15;;;;;;;8.45;1.88;;;4.00;99.90;;;;;;5099017;28;20020;-77
2022/02/12 11:38:44;;;;;;;7.68;1.70;;;4.00;99.90;;;;;;5098797;28;20051;-76
2022/02/12 11:41:28;;;;;;;7.68;1.67;;;4.10;99.90;;;;;;5098093;28;20081;-76
2022/02/12 11:43:56;;;;;;;12.48;1.90;;;4.10;99.90;;;;;;5098644;28;20476;-74
2022/02/12 11:46:52;;;;;;;10.90;1.65;;;4.10;99.90;;;;;;5098879;28;20473;-82
2022/02/12 11:49:30;;;;;;;16.67;2.65;;;4.10;99.90;;;;;;5098794;28;20527;-80
2022/02/12 11:52:00;;;;;;;6.50;1.05;;;4.10;99.90;;;;;;5098862;28;20042;-79
2022/02/12 11:54:57;;;;;;;4.10;1.35;;;4.00;99.90;;;;;;5098418;28;20050;-79
2022/02/12 11:57:28;;;;;;;7.32;1.45;;;4.10;99.90;;;;;;5098472;28;20020;-79
2022/02/12 12:00:01;;;;;;;7.90;1.98;;;4.10;99.90;;;;;;5098835;28;20059;-79
2022/02/12 12:02:38;;;;;;;8.10;1.80;;;4.00;99.90;;;;;;5098555;28;20016;-79
2022/02/12 12:05:20;;;;;;;5.47;1.40;;;4.00;99.90;;;;;;5098155;28;20023;-75
2022/02/12 12:08:07;;;;;;;5.07;1.38;;;4.00;99.90;;;;;;5098507;28;20020;-77
2022/02/12 12:10:59;;;;;;;5.07;1.70;;;4.10;99.90;;;;;;5098418;28;20047;-80
2022/02/12 12:13:27;;;;;;;4.85;1.35;;;4.10;99.90;;;;;;5085251;28;20036;-81
2022/02/12 12:16:14;;;;;;;9.95;1.80;;;4.10;99.90;;;;;;5079340;28;20101;-84
2022/02/12 12:18:46;;;;;;;4.10;1.15;;;4.10;99.90;;;;;;5080420;28;20111;-84
2022/02/12 12:21:18;;;;;;;5.70;1.77;;;4.20;99.90;;;;;;5097254;28;20485;-85
2022/02/12 12:24:00;;;;;;;2.00;0.85;;;4.10;99.90;;;;;;5097651;28;20055;-81
2022/02/12 12:26:42;;;;;;;11.13;1.88;;;4.20;99.90;;;;;;5098051;28;20086;-80
2022/02/12 12:32:02;;;;;;;4.18;1.15;;;4.20;99.90;;;;;;5097908;28;20103;-80
2022/02/12 12:34:30;;;;;;;6.38;1.35;;;4.20;99.90;;;;;;5097793;28;20050;-81
2022/02/12 12:36:58;;;;;;;4.82;1.27;;;4.20;99.90;;;;;;5079971;28;20078;-79
2022/02/12 12:39:37;;;;;;;5.25;2.10;;;4.30;99.90;;;;;;5097827;28;20028;-77
2022/02/12 12:42:16;;;;;;;4.93;1.05;;;4.30;99.90;;;;;;5097693;28;20016;-78
2022/02/12 12:45:00;;;;;;;6.18;1.77;;;4.40;99.90;;;;;;5097528;28;20028;-78
2022/02/12 12:47:29;;;;;;;13.25;2.95;;;4.30;99.90;;;;;;5097756;28;20020;-78
2022/02/12 12:49:58;;;;;;;12.13;2.88;;;4.30;99.90;;;;;;5097916;28;20058;-77
2022/02/12 12:52:33;;;;;;;5.95;1.75;;;4.30;99.90;;;;;;5079093;28;20020;-79
2022/02/12 12:55:10;;;;;;;6.30;2.58;;;4.30;99.90;;;;;;5097615;28;20476;-78
2022/02/12 12:57:45;;;;;;;9.82;1.58;;;4.20;99.90;;;;;;5097715;28;20319;-78
2022/02/12 13:00:18;;;;;;;8.88;1.80;;;4.20;99.90;;;;;;5079491;28;20028;-78
2022/02/12 13:02:56;;;;;;;10.70;3.63;;;4.20;99.90;;;;;;5097800;28;20023;-77